createdAt,value
2023-01-13T00:01:23.629Z,0.08361204013377926
2023-01-13T00:07:51.845Z,0.22073578595317725
2023-01-13T00:19:01.933Z,0.14046822742474915
2023-01-13T00:25:26.479Z,0.20066889632107024
2023-01-13T00:31:53.108Z,0.05016722408026756
2023-01-13T00:38:18.299Z,0.06354515050167224
2023-01-13T00:44:44.672Z,0.06688963210702341
2023-01-13T00:51:11.403Z,0.1806020066889632
2023-01-13T00:58:54.741Z,0.16387959866220736
2023-01-13T01:11:20.785Z,0.14381270903010032
2023-01-13T01:18:22.726Z,0.3110367892976589
2023-01-13T01:24:49.373Z,0.47491638795986624
2023-01-13T01:31:16.408Z,0.3712374581939799
2023-01-13T01:37:40.833Z,0.5618729096989966
2023-01-13T01:47:52.890Z,0.4816053511705686
2023-01-13T01:54:22.854Z,0.3511705685618729
2023-01-13T02:00:47.605Z,0.5518394648829431
2023-01-13T02:07:11.945Z,0.782608695652174
2023-01-13T02:13:37.185Z,0.745819397993311
2023-01-13T02:20:07.036Z,0.8896321070234113
2023-01-13T02:26:32.792Z,0.8795986622073578
2023-01-13T02:37:43.747Z,0.5852842809364549
2023-01-13T02:46:33.887Z,0.6722408026755853
2023-01-13T02:56:11.369Z,0.5919732441471572
2023-01-13T03:06:27.496Z,0.7591973244147158
2023-01-13T03:12:55.821Z,0.9565217391304348
2023-01-13T03:19:18.789Z,1.1337792642140467
2023-01-13T03:25:43.173Z,1.2173913043478262
2023-01-13T03:32:08.435Z,1.7090301003344481
2023-01-13T03:39:25.159Z,1.7491638795986622
2023-01-13T03:45:53.703Z,1.625418060200669
2023-01-13T03:52:18.033Z,2.0434782608695654
2023-01-13T03:58:45.019Z,1.6923076923076923
2023-01-13T04:05:15.867Z,2.297658862876254
2023-01-13T04:11:47.108Z,1.5518394648829432
2023-01-13T04:19:20.529Z,2.1872909698996654
2023-01-13T04:32:09.107Z,1.8093645484949832
2023-01-13T04:38:34.760Z,1.6755852842809364
2023-01-13T04:51:09.270Z,1.9297658862876255
2023-01-13T04:57:35.061Z,2.2274247491638794
2023-01-13T05:04:00.973Z,2.0936454849498327
2023-01-13T05:10:24.711Z,2.859531772575251
2023-01-13T05:19:27.971Z,3.511705685618729
2023-01-13T05:25:52.917Z,3.1471571906354514
2023-01-13T05:32:20.942Z,3.1103678929765888
2023-01-13T05:38:47.756Z,3.431438127090301
2023-01-13T05:45:15.745Z,2.568561872909699
2023-01-13T06:01:59.168Z,2.859531772575251
2023-01-13T06:08:28.183Z,2.9698996655518393
2023-01-13T06:14:56.129Z,2.842809364548495
2023-01-13T06:21:48.645Z,2.1471571906354514
2023-01-13T06:28:15.176Z,2.488294314381271
2023-01-13T06:34:44.494Z,2.5652173913043477
2023-01-13T06:44:27.290Z,2.0066889632107023
2023-01-13T06:56:33.312Z,2.6655518394648827
2023-01-13T07:03:00.667Z,2.57190635451505
2023-01-13T07:09:27.315Z,2.632107023411371
2023-01-13T07:20:53.224Z,2.294314381270903
2023-01-13T07:27:20.867Z,2.3846153846153846
2023-01-13T07:36:53.081Z,2.551839464882943
2023-01-13T07:43:20.725Z,2.431438127090301
2023-01-13T07:49:50.387Z,1.4749163879598661
2023-01-13T07:56:25.573Z,1.7826086956521738
2023-01-13T08:02:51.414Z,1.1806020066889633
2023-01-13T08:09:16.803Z,1.6722408026755853
2023-01-13T08:15:42.948Z,0.7725752508361204
2023-01-13T08:33:12.128Z,0.5785953177257525
2023-01-13T08:39:36.881Z,0.3779264214046823
2023-01-13T08:46:02.176Z,0.28762541806020064
2023-01-13T08:52:26.646Z,0.2809364548494983
2023-01-13T08:58:51.762Z,0.5986622073578596
2023-01-13T09:05:17.828Z,0.5752508361204013
2023-01-13T09:11:42.877Z,0.3979933110367893
2023-01-13T09:18:09.306Z,0.5451505016722408
2023-01-13T09:24:33.751Z,0.43812709030100333
2023-01-13T09:31:00.022Z,0.9130434782608695
2023-01-13T09:37:24.180Z,1.0234113712374582
2023-01-13T09:43:48.992Z,0.28762541806020064
2023-01-13T09:50:13.761Z,0.9565217391304348
2023-01-13T09:56:38.577Z,0.5986622073578596
2023-01-13T10:03:04.720Z,1.354515050167224
2023-01-13T10:12:16.608Z,0.8193979933110368
2023-01-13T10:18:42.196Z,1.8695652173913044
2023-01-13T10:25:10.397Z,1.1103678929765886
2023-01-13T10:31:35.341Z,1.5551839464882944
2023-01-13T10:38:00.554Z,2.2675585284280935
2023-01-13T10:44:25.021Z,2.8762541806020065
2023-01-13T10:50:50.464Z,3.117056856187291
2023-01-13T10:57:14.765Z,3.0100334448160537
2023-01-13T11:03:39.128Z,1.4648829431438126
2023-01-13T11:10:04.052Z,2.0903010033444818
2023-01-13T11:17:56.683Z,2.6655518394648827
2023-01-13T11:25:34.555Z,2.6555183946488294
2023-01-13T11:38:43.173Z,2.1672240802675584
2023-01-13T11:49:42.121Z,1.8127090301003344
2023-01-13T11:56:06.706Z,2.351170568561873
2023-01-13T12:02:31.026Z,1.5919732441471572
2023-01-13T12:08:56.026Z,1.7591973244147157
2023-01-13T12:18:02.249Z,1.2976588628762542
2023-01-13T12:30:27.721Z,1.705685618729097
2023-01-13T12:41:41.982Z,0.842809364548495
2023-01-13T12:48:07.488Z,0.7759197324414716
2023-01-13T12:54:32.541Z,0.451505016722408
2023-01-13T13:00:58.945Z,0.8127090301003345
2023-01-13T13:07:23.590Z,0.6287625418060201
2023-01-13T13:13:48.958Z,0.6053511705685619
2023-01-13T13:20:13.811Z,0.7491638795986622
2023-01-13T13:26:38.497Z,0.8193979933110368
2023-01-13T13:34:11.306Z,0.939799331103679
2023-01-13T13:40:36.101Z,0.5585284280936454
2023-01-13T13:47:01.292Z,0.5652173913043478
2023-01-13T13:53:26.696Z,0.8528428093645485
2023-01-13T13:59:51.734Z,0.5351170568561873
2023-01-13T14:11:20.736Z,0.568561872909699
2023-01-13T14:17:46.415Z,0.6989966555183946
2023-01-13T14:28:34.560Z,0.6956521739130435
2023-01-13T14:34:59.560Z,0.8695652173913043
2023-01-13T14:44:58.554Z,0.9130434782608695
2023-01-13T14:51:23.206Z,0.5183946488294314
2023-01-13T14:57:49.606Z,0.7525083612040134
2023-01-13T15:04:16.105Z,0.6755852842809364
2023-01-13T15:10:50.692Z,0.822742474916388
2023-01-13T15:17:14.759Z,0.9063545150501672
2023-01-13T15:23:40.545Z,0.42474916387959866
2023-01-13T15:30:05.835Z,1.2675585284280937
2023-01-13T15:36:27.787Z,0.7224080267558528
2023-01-13T15:46:42.852Z,0.6421404682274248
2023-01-13T15:53:04.619Z,0.17391304347826086
2023-01-13T15:59:26.154Z,0.5284280936454849
2023-01-13T16:05:48.141Z,0.4214046822742475
2023-01-13T16:12:10.355Z,0.5986622073578596
2023-01-13T16:18:32.250Z,0.3745819397993311
2023-01-13T16:24:54.242Z,0.5785953177257525
2023-01-13T16:36:09.701Z,0.7290969899665551
2023-01-13T16:42:34.003Z,1.4615384615384615
2023-01-13T16:48:56.249Z,0.568561872909699
2023-01-13T17:00:24.663Z,0.6989966555183946
2023-01-13T17:06:46.086Z,1.9565217391304348
2023-01-13T17:14:57.114Z,2.4347826086956523
2023-01-13T17:24:53.356Z,1.7692307692307692
2023-01-13T17:34:00.822Z,3.612040133779264
2023-01-13T17:40:49.512Z,2.1839464882943145
2023-01-13T17:47:10.450Z,3.0702341137123748
2023-01-13T17:54:23.847Z,2.0936454849498327
2023-01-13T18:00:45.759Z,3.869565217391304
2023-01-13T18:07:07.263Z,0.31438127090301005
2023-01-13T18:13:29.100Z,0.17391304347826086
2023-01-13T18:19:52.178Z,0.3779264214046823
2023-01-13T18:26:13.521Z,0.8260869565217391
2023-01-13T18:34:46.333Z,3.117056856187291
2023-01-13T18:41:08.725Z,2.879598662207358
2023-01-13T18:47:30.608Z,2.217391304347826
2023-01-13T18:55:52.186Z,2.749163879598662
2023-01-13T19:04:06.648Z,3.016722408026756
2023-01-13T19:10:28.800Z,2.0936454849498327
2023-01-13T19:16:51.775Z,2.983277591973244
2023-01-13T19:23:14.366Z,2.260869565217391
2023-01-13T19:29:36.025Z,2.2642140468227425
2023-01-13T19:35:58.552Z,2.1672240802675584
2023-01-13T19:42:21.182Z,0.4214046822742475
2023-01-13T19:48:54.491Z,0.2040133779264214
2023-01-13T19:58:22.632Z,1.020066889632107
2023-01-13T20:04:44.578Z,0.842809364548495
2023-01-13T20:15:16.861Z,1.3043478260869565
2023-01-13T20:21:54.200Z,1.120401337792642
2023-01-13T20:28:20.042Z,0.7725752508361204
2023-01-13T20:34:45.364Z,0.36789297658862874
2023-01-13T20:41:11.395Z,1.3879598662207357
2023-01-13T20:47:35.421Z,0.6153846153846154
2023-01-13T20:54:01.680Z,0.7859531772575251
2023-01-13T21:00:25.883Z,1.0568561872909699
2023-01-13T21:06:48.449Z,1.9765886287625418
2023-01-13T21:13:10.543Z,0.14715719063545152
2023-01-13T21:19:33.135Z,0.28762541806020064
2023-01-13T21:25:56.300Z,0.10702341137123746
2023-01-13T21:32:18.726Z,0.6086956521739131
2023-01-13T21:38:43.751Z,1.0367892976588629
2023-01-13T21:45:06.983Z,1.0100334448160535
2023-01-13T21:51:30.315Z,1.4983277591973243
2023-01-13T21:57:53.587Z,0.7023411371237458
2023-01-13T22:04:16.632Z,0.842809364548495
2023-01-13T22:10:45.848Z,0.6086956521739131
2023-01-13T22:17:09.898Z,1.0969899665551839
2023-01-13T22:23:32.337Z,0.8160535117056856
2023-01-13T22:29:57.551Z,1.0033444816053512
2023-01-13T22:36:21.287Z,0.9632107023411371
2023-01-13T22:44:57.547Z,0.47157190635451507
2023-01-13T22:51:23.167Z,0.42474916387959866
2023-01-13T22:57:48.850Z,0.17391304347826086
2023-01-13T23:05:18.500Z,0.28762541806020064
2023-01-13T23:11:47.957Z,0.14381270903010032
2023-01-13T23:18:24.129Z,0.09364548494983277
2023-01-13T23:25:44.946Z,0.31438127090301005
2023-01-13T23:32:09.122Z,0.22073578595317725
2023-01-13T23:38:35.876Z,0.23411371237458195
2023-01-13T23:45:02.996Z,0.2040133779264214
2023-01-13T23:51:30.044Z,0.2408026755852843
